Aeroporto :







RITROVATECI SU...

 
LOGIN :

Iscrizione | Disclaimer

   EN    FR    IT 

 









Sommario :    VFR   VFR Marginale   IFR   IFR Intensivo   IFR Molto Intensivo
Visibilità : 
Base nubi : 
>= 8 km
>= 3000ft
5 / 8 km
1000 / 3000 ft
1500m / 5 km
500 / 1000 ft
800 / 1500m
200 / 500 ft
< 800m
< 200 ft
Simboli :   Temporali  Nebbia  Neve Forte  Precipitazioni Forti  Vento > 20 kt






- Altitudine del aeroporto : 1009 ft
- Codice IATA : ORH


KORH - Worcester Regional

ULTIMO METAR :
  • 101254Z 15005KT 10SM OVC009 23/20 A3007 RMK AO2 CIG 006V014 SLP176 T02280200

METARs OBSOLETI :
  • 101206Z 17005KT 10SM OVC005 22/20 A3007 RMK AO2 T02220200
  • 101154Z 18004KT 10SM OVC004 22/20 A3007 RMK AO2 SLP176 T02220200 10222 20200 53000
  • 101054Z 23003KT 7SM OVC002 21/19 A3007 RMK AO2 SLP176 T02060194
  • 101019Z 24003KT 3SM R11/4500VP6000FT BR OVC002 21/19 A3007 RMK AO2 T02060194

TAF KORH
Valido dal 10 a 12 ore il 11 a 12 ore UTC


101134Z 1012/1112 18003KT 6SM BR BKN003
FM101500 13006KT P6SM BKN050
FM102100 14008KT P6SM -SHRA OVC015
FM110000 11008KT 4SM SHRA BR OVC010
FM110400 11011G25KT 1 1/2SM -SHRA BR OVC003
FM110600 14012G27KT 1/2SM -SHRA FG OVC003
FIR KZBW / America del Nord



MetMap, La meteo Aeronautica in un colpo d'occhio ! - Copyright ORBIFLY Dicembre 2007 - Disclaimer

ORBIFLY MET'MAP TEAM :

Programmazione e sviluppo : Alexandra Zaïnal
Concezione : Baudouin d'Aumeries
Aiuto per la programmazione : Marc-Olivier Méhu
Supporto tecnico e logistico : Manuel Goepfert
Aiuto per la traduzione : Arnaldo La Scala

Contatto : metmap@orbifly.com




FONTI E CREDITI :

   NOAA